• Join FlightAware (Why Join?)
  • Login
  • US Flag 
06:05AM EDT


 

Airport Tracker/Info


-or-


 

Live Flight TrackerFlight Track Log ✈ N830QS ✈ 20-Aug-2013 ✈ KELP - KSAN

Flight Track Log - Related Links

Times and Time Zones

All times are in EDT time to prevent confusion due to time zone crossing. See the N830QS flight status page for this flight to view local times or setup timezone preferences in your user account.

Time Position Orientation Groundspeed Altitude Reporting Facility
EDT Latitude Longitude Course Direction KTS MPH feet Rate Location/Type
07:03PM 31.8022 -106.3903 253° West 177 204 4,400  Level Albuquerque Center
07:04PM 31.7883 -106.4439 253° West 216 249 6,400 2,340 Climbing Albuquerque Center
07:05PM 31.7694 -106.5158 253° West 274 315 8,700 2,520 Climbing Albuquerque Center
07:06PM 31.8158 -106.6008 303° West 280 322 12,100 2,580 Climbing Albuquerque Center
07:07PM 31.8442 -106.6897 291° West 294 338 14,600 2,340 Climbing Albuquerque Center
07:08PM 31.8617 -106.7900 282° West 311 358 16,900 2,220 Climbing Albuquerque Center
07:09PM 31.8853 -106.9181 282° West 332 382 19,200 2,040 Climbing Albuquerque Center
07:10PM 31.9086 -107.0269 284° West 341 392 21,200 1,920 Climbing Albuquerque Center
07:11PM 31.9317 -107.1369 284° West 344 396 23,200 1,920 Climbing Albuquerque Center
07:13PM 31.9467 -107.2486 279° West 343 395 25,200 1,740 Climbing Albuquerque Center
07:14PM 31.9281 -107.3625 259° West 353 406 26,800 1,500 Climbing Albuquerque Center
07:15PM 31.9108 -107.4794 260° West 359 413 28,300 1,260 Climbing Albuquerque Center
07:16PM 31.8972 -107.6083 263° West 372 428 29,400 1,020 Climbing Albuquerque Center
07:17PM 31.8861 -107.7369 264° West 387 445 30,400 960 Climbing Albuquerque Center
07:18PM 31.8753 -107.8669 264° West 396 456 31,400 960 Climbing Albuquerque Center
07:19PM 31.8550 -107.9956 260° West 399 459 32,400 960 Climbing Albuquerque Center
07:20PM 31.8367 -108.1267 261° West 404 465 33,400 780 Climbing Albuquerque Center
07:21PM 31.8181 -108.2558 260° West 402 463 34,000 240 Climbing Albuquerque Center
07:22PM 31.8172 -108.4164 270° West 408 470 34,000  Level Albuquerque Center
07:23PM 31.7992 -108.5458 261° West 402 463 34,000  Level Albuquerque Center
07:24PM 31.7783 -108.6750 259° West 401 461 34,000  Level Albuquerque Center
07:25PM 31.7594 -108.8050 260° West 403 464 34,000  Level Albuquerque Center
07:26PM 31.7450 -108.9317 262° West 395 455 34,000  Level Albuquerque Center
07:27PM 31.7442 -109.0600 270° West 392 451 34,000  Level Albuquerque Center
07:28PM 31.7631 -109.1853 280° West 391 450 34,000  Level Albuquerque Center
07:29PM 31.7844 -109.3131 281° West 395 455 34,000  Level Albuquerque Center
07:30PM 31.8031 -109.4397 280° West 395 455 34,000  Level Albuquerque Center
07:31PM 31.8397 -109.5611 290° West 395 455 34,000  Level Albuquerque Center
07:32PM 31.8950 -109.7067 294° West 403 464 34,000  Level Albuquerque Center
07:33PM 31.9400 -109.8297 293° West 407 468 34,000  Level Albuquerque Center
07:34PM 31.9814 -109.9536 292° West 408 470 34,000  Level Albuquerque Center
07:35PM 32.0014 -110.0847 280° West 407 468 34,000  Level Albuquerque Center
07:36PM 32.0139 -110.2161 276° West 406 467 34,000  Level Albuquerque Center
07:37PM 32.0319 -110.3503 279° West 410 472 34,000  Level Albuquerque Center
07:38PM 32.0372 -110.4836 273° West 410 472 34,000  Level Albuquerque Center
07:39PM 32.0433 -110.6147 273° West 405 466 34,000  Level Albuquerque Center
07:40PM 32.0639 -110.7492 280° West 400 460 34,000  Level Albuquerque Center
07:41PM 32.1008 -110.8769 289° West 407 468 34,000  Level Albuquerque Center
07:42PM 32.1536 -110.9950 298° West 409 471 34,000  Level Albuquerque Center
07:43PM 32.2183 -111.1056 305° West 409 471 34,000  Level Albuquerque Center
07:44PM 32.3119 -111.2253 313° West 414 476 34,000  Level Albuquerque Center
07:45PM 32.3964 -111.3167 318° Northwest 412 474 34,000  Level Albuquerque Center
07:46PM 32.4831 -111.4083 318° Northwest 416 479 34,000  Level Albuquerque Center
07:47PM 32.5725 -111.4978 320° Northwest 419 482 34,000  Level Albuquerque Center
07:48PM 32.6403 -111.6075 306° West 414 476 34,000  Level Albuquerque Center
07:49PM 32.6792 -111.7336 290° West 406 467 34,000  Level Albuquerque Center
07:50PM 32.7172 -111.8625 289° West 410 472 34,000  Level Albuquerque Center
07:51PM 32.7561 -111.9917 290° West 414 476 34,000  Level Albuquerque Center
07:52PM 32.7944 -112.1200 290° West 412 474 34,000  Level Albuquerque Center
07:53PM 32.8389 -112.2692 290° West 414 476 34,000  Level Albuquerque Center
07:54PM 32.8772 -112.4019 289° West 423 487 34,000  Level Albuquerque Center
07:55PM 32.9167 -112.5381 289° West 433 498 34,000  Level Albuquerque Center
07:56PM 32.9483 -112.6761 285° West 439 505 34,000  Level Albuquerque Center
07:58PM 32.9378 -112.8144 265° West 427 491 34,000  Level Albuquerque Center
07:59PM 32.9167 -112.9789 261° West 423 487 34,000  Level Albuquerque Center
08:00PM 32.8975 -113.1167 261° West 425 489 34,000  Level Albuquerque Center
08:01PM 32.8783 -113.2547 261° West 427 491 34,000  Level Albuquerque Center
08:02PM 32.8586 -113.3928 260° West 427 491 34,000  Level Albuquerque Center
08:03PM 32.8389 -113.5314 260° West 427 491 34,000  Level Albuquerque Center
08:03PM 32.8219 -113.6497 260° West 427 491 34,000  Level Los Angeles Center
08:04PM 32.8031 -113.7892 261° West 428 493 34,000  Level Los Angeles Center
08:05PM 32.7822 -113.9283 260° West 428 493 34,000  Level Los Angeles Center
08:06PM 32.7753 -114.0700 267° West 430 495 34,000  Level Los Angeles Center
08:08PM 32.7728 -114.2131 269° West 432 497 34,000  Level Los Angeles Center
08:09PM 32.7731 -114.3550 270° West 430 495 34,000  Level Los Angeles Center
08:10PM 32.7686 -114.5256 268° West 430 495 34,000  Level Los Angeles Center
08:11PM 32.7669 -114.6672 269° West 430 495 34,000  Level Los Angeles Center
08:12PM 32.7633 -114.8086 268° West 429 494 34,000 -540 Level Los Angeles Center
08:13PM 32.7614 -114.9506 269° West 430 495 32,900 -1,620 Descending Los Angeles Center
08:14PM 32.7578 -115.0922 268° West 430 495 30,700 -2,460 Descending Los Angeles Center
08:15PM 32.7556 -115.2661 269° West 437 503 27,900 -2,460 Descending Los Angeles Center
08:16PM 32.7508 -115.4047 268° West 425 489 25,600 -2,100 Descending Los Angeles Center
08:17PM 32.7486 -115.5361 269° West 406 467 23,600 -1,980 Descending Los Angeles Center
08:18PM 32.7533 -115.6725 272° West 410 472 21,600 -1,860 Descending Los Angeles Center
08:19PM 32.7558 -115.8050 271° West 405 466 19,800 -1,860 Descending Los Angeles Center
08:20PM 32.7589 -115.9350 272° West 398 458 17,800 -1,980 Descending Los Angeles Center
08:21PM 32.7625 -116.0819 272° West 374 430 15,800 -1,800 Descending Los Angeles Center
08:22PM 32.7644 -116.2008 271° West 363 418 14,100 -1,680 Descending Los Angeles Center
08:23PM 32.7625 -116.3183 269° West 355 409 12,400 -1,620 Descending Los Angeles Center
08:24PM 32.7439 -116.4322 259° West 347 399 10,800 -1,200 Descending Los Angeles Center
08:25PM 32.7281 -116.5439 260° West 341 392 9,900 -1,020 Descending Los Angeles Center
08:26PM 32.7150 -116.6389 261° West 300 345 8,700 -1,320 Descending Los Angeles Center
08:27PM 32.7106 -116.7319 267° West 285 328 7,200 -1,320 Descending Los Angeles Center
08:28PM 32.7078 -116.8231 268° West 278 320 6,000 -1,320 Descending Los Angeles Center
08:29PM 32.7000 -116.8833 261° West 275 316 5,200 -1,440 Descending Southern California TRACON
08:30PM 32.7000 -116.9667 270° West 224 258 3,800 -1,320 Descending Southern California TRACON
08:31PM 32.7000 -117.0333 270° West 202 232 2,600 -1,020 Descending Southern California TRACON
08:32PM 32.7167 -117.1000 287° West 179 206 1,800 -900 Descending Southern California TRACON
08:33PM 32.7167 -117.1500 270° West 149 171 800 -900 Descending Southern California TRACON
08:33PM 32.7261 -117.1614 315° West 152 175 400 -420 Descending Los Angeles Center
08:34PM 32.7353 -117.1978 287° West 120 138 100 -300 Descending Los Angeles Center
08:36PM 32.7333 -117.1833 North  Level FlightAware Approximate